sensor_id;sensor_type;location;lat;lon;timestamp;temperature;humidity
14775;DHT22;7479;47.042;15.160;2023-12-07T09:10:19;0.80;99.90
14775;DHT22;7479;47.042;15.160;2023-12-07T09:15:13;1.10;99.90
14775;DHT22;7479;47.042;15.160;2023-12-07T09:20:08;1.30;99.90
14775;DHT22;7479;47.042;15.160;2023-12-07T09:25:06;1.50;99.90
14775;DHT22;7479;47.042;15.160;2023-12-07T09:39:22;2.00;99.90
14775;DHT22;7479;47.042;15.160;2023-12-07T09:44:17;2.20;99.90
14775;DHT22;7479;47.042;15.160;2023-12-07T09:49:10;2.40;99.90
14775;DHT22;7479;47.042;15.160;2023-12-07T09:54:05;2.50;99.90
14775;DHT22;7479;47.042;15.160;2023-12-07T09:59:00;2.80;99.90
14775;DHT22;7479;47.042;15.160;2023-12-07T10:04:15;3.10;99.90
14775;DHT22;7479;47.042;15.160;2023-12-07T10:09:09;3.40;99.90
14775;DHT22;7479;47.042;15.160;2023-12-07T10:14:13;3.60;99.90
14775;DHT22;7479;47.042;15.160;2023-12-07T10:19:13;3.90;99.90
14775;DHT22;7479;47.042;15.160;2023-12-07T10:24:25;4.10;99.90
14775;DHT22;7479;47.042;15.160;2023-12-07T10:29:20;4.40;99.90
14775;DHT22;7479;47.042;15.160;2023-12-07T10:34:24;4.70;99.90
14775;DHT22;7479;47.042;15.160;2023-12-07T10:39:19;4.90;99.90
14775;DHT22;7479;47.042;15.160;2023-12-07T10:44:28;5.20;99.90
14775;DHT22;7479;47.042;15.160;2023-12-07T10:49:24;5.50;99.90
14775;DHT22;7479;47.042;15.160;2023-12-07T10:54:33;5.70;99.90
14775;DHT22;7479;47.042;15.160;2023-12-07T10:59:31;5.90;99.90
14775;DHT22;7479;47.042;15.160;2023-12-07T11:04:27;6.10;99.90
14775;DHT22;7479;47.042;15.160;2023-12-07T11:09:25;6.20;99.30
14775;DHT22;7479;47.042;15.160;2023-12-07T11:14:22;6.60;99.20
14775;DHT22;7479;47.042;15.160;2023-12-07T11:19:44;6.90;97.90
14775;DHT22;7479;47.042;15.160;2023-12-07T11:24:39;6.60;94.70
14775;DHT22;7479;47.042;15.160;2023-12-07T11:29:46;6.80;95.10
14775;DHT22;7479;47.042;15.160;2023-12-07T11:34:41;7.10;94.60
14775;DHT22;7479;47.042;15.160;2023-12-07T11:39:37;7.30;92.60
14775;DHT22;7479;47.042;15.160;2023-12-07T11:44:33;7.50;92.10
14775;DHT22;7479;47.042;15.160;2023-12-07T11:49:28;7.40;91.60
14775;DHT22;7479;47.042;15.160;2023-12-07T11:54:27;7.80;92.50
14775;DHT22;7479;47.042;15.160;2023-12-07T11:59:25;7.80;90.80
14775;DHT22;7479;47.042;15.160;2023-12-07T12:04:25;8.10;92.00
14775;DHT22;7479;47.042;15.160;2023-12-07T12:09:19;8.60;90.50
14775;DHT22;7479;47.042;15.160;2023-12-07T12:14:24;8.70;90.10
14775;DHT22;7479;47.042;15.160;2023-12-07T12:19:20;8.60;86.70
14775;DHT22;7479;47.042;15.160;2023-12-07T12:24:24;8.70;87.00
14775;DHT22;7479;47.042;15.160;2023-12-07T12:29:17;9.60;87.60
14775;DHT22;7479;47.042;15.160;2023-12-07T12:34:26;9.80;83.20
14775;DHT22;7479;47.042;15.160;2023-12-07T12:39:20;9.60;84.40
14775;DHT22;7479;47.042;15.160;2023-12-07T12:44:25;9.70;82.40
14775;DHT22;7479;47.042;15.160;2023-12-07T12:49:36;10.10;80.90
14775;DHT22;7479;47.042;15.160;2023-12-07T12:54:31;10.20;80.10
14775;DHT22;7479;47.042;15.160;2023-12-07T12:59:25;10.50;78.80
14775;DHT22;7479;47.042;15.160;2023-12-07T13:04:19;10.50;78.60
14775;DHT22;7479;47.042;15.160;2023-12-07T13:09:15;10.60;76.80
14775;DHT22;7479;47.042;15.160;2023-12-07T13:14:09;10.20;76.10
14775;DHT22;7479;47.042;15.160;2023-12-07T13:19:04;9.00;79.70
14775;DHT22;7479;47.042;15.160;2023-12-07T13:23:59;9.20;83.10
14775;DHT22;7479;47.042;15.160;2023-12-07T13:28:56;9.70;81.80
14775;DHT22;7479;47.042;15.160;2023-12-07T13:33:50;9.20;80.10
14775;DHT22;7479;47.042;15.160;2023-12-07T13:38:48;8.10;83.20
14775;DHT22;7479;47.042;15.160;2023-12-07T13:43:43;8.60;92.80
14775;DHT22;7479;47.042;15.160;2023-12-07T13:48:38;8.40;95.50
14775;DHT22;7479;47.042;15.160;2023-12-07T13:53:33;7.10;99.20
14775;DHT22;7479;47.042;15.160;2023-12-07T13:58:28;6.10;99.90
14775;DHT22;7479;47.042;15.160;2023-12-07T14:03:21;5.50;99.90
14775;DHT22;7479;47.042;15.160;2023-12-07T14:08:19;5.10;99.90
14775;DHT22;7479;47.042;15.160;2023-12-07T14:13:13;4.60;99.90
14775;DHT22;7479;47.042;15.160;2023-12-07T14:18:06;4.30;99.90
14775;DHT22;7479;47.042;15.160;2023-12-07T14:23:01;4.20;99.90
14775;DHT22;7479;47.042;15.160;2023-12-07T14:27:58;3.90;99.90
14775;DHT22;7479;47.042;15.160;2023-12-07T14:32:52;3.60;99.90
14775;DHT22;7479;47.042;15.160;2023-12-07T14:37:45;3.40;99.90
14775;DHT22;7479;47.042;15.160;2023-12-07T14:42:39;3.20;99.90
14775;DHT22;7479;47.042;15.160;2023-12-07T14:47:35;2.90;99.90
14775;DHT22;7479;47.042;15.160;2023-12-07T14:52:28;2.70;99.90
14775;DHT22;7479;47.042;15.160;2023-12-07T14:57:22;2.60;99.90
14775;DHT22;7479;47.042;15.160;2023-12-07T15:02:16;2.40;99.90
14775;DHT22;7479;47.042;15.160;2023-12-07T15:07:11;2.20;99.90
14775;DHT22;7479;47.042;15.160;2023-12-07T15:12:05;1.90;99.90
14775;DHT22;7479;47.042;15.160;2023-12-07T15:17:00;1.70;99.90
14775;DHT22;7479;47.042;15.160;2023-12-07T15:21:53;1.60;99.90
14775;DHT22;7479;47.042;15.160;2023-12-07T15:26:49;1.60;99.90
14775;DHT22;7479;47.042;15.160;2023-12-07T15:31:43;1.40;99.90
14775;DHT22;7479;47.042;15.160;2023-12-07T15:36:36;1.30;99.90
14775;DHT22;7479;47.042;15.160;2023-12-07T15:41:30;1.10;99.90
14775;DHT22;7479;47.042;15.160;2023-12-07T15:46:25;1.00;99.90
14775;DHT22;7479;47.042;15.160;2023-12-07T15:51:19;0.80;99.90
14775;DHT22;7479;47.042;15.160;2023-12-07T15:56:13;0.80;99.90
14775;DHT22;7479;47.042;15.160;2023-12-07T16:01:16;0.70;99.90
14775;DHT22;7479;47.042;15.160;2023-12-07T16:06:11;0.70;99.90
14775;DHT22;7479;47.042;15.160;2023-12-07T16:11:05;0.50;99.90
14775;DHT22;7479;47.042;15.160;2023-12-07T16:15:59;0.40;99.90
14775;DHT22;7479;47.042;15.160;2023-12-07T16:20:54;0.30;99.90
14775;DHT22;7479;47.042;15.160;2023-12-07T16:25:49;0.20;99.90
14775;DHT22;7479;47.042;15.160;2023-12-07T16:30:43;0.10;99.90
14775;DHT22;7479;47.042;15.160;2023-12-07T16:35:40;0.10;99.90
14775;DHT22;7479;47.042;15.160;2023-12-07T16:40:34;0.00;99.90
14775;DHT22;7479;47.042;15.160;2023-12-07T16:45:29;0.00;99.90
14775;DHT22;7479;47.042;15.160;2023-12-07T16:50:25;-0.10;99.90
14775;DHT22;7479;47.042;15.160;2023-12-07T16:55:19;-0.10;99.90
14775;DHT22;7479;47.042;15.160;2023-12-07T17:00:13;-0.20;99.90
14775;DHT22;7479;47.042;15.160;2023-12-07T17:05:09;-0.30;99.90
14775;DHT22;7479;47.042;15.160;2023-12-07T17:10:03;-0.50;99.90
14775;DHT22;7479;47.042;15.160;2023-12-07T17:14:57;-0.50;99.90
14775;DHT22;7479;47.042;15.160;2023-12-07T17:19:51;-0.50;99.90
14775;DHT22;7479;47.042;15.160;2023-12-07T17:24:47;-0.60;99.90
14775;DHT22;7479;47.042;15.160;2023-12-07T17:29:41;-0.70;99.90
14775;DHT22;7479;47.042;15.160;2023-12-07T17:34:34;-0.80;99.90
